Time;durP1;ratioP1;P1;durP2;ratioP2;P2;SDS_P1;SDS_P2;PMS_P1;PMS_P2;Temp;Humidity;BMP_temperature;BMP_pressure;BME280_temperature;BME280_humidity;BME280_pressure;Samples;Min_cycle;Max_cycle;Signal;HPM_P1;HPM_P2
2023/03/28 00:01:06;;;;;;;5.72;3.20;;;5.50;59.30;;;0.48;100.00;96344.91;5013099;28;20075;-54
2023/03/28 00:03:38;;;;;;;6.93;3.47;;;5.50;59.40;;;0.49;100.00;96343.09;5011742;28;20555;-52
2023/03/28 00:06:15;;;;;;;6.35;3.10;;;5.40;59.30;;;0.50;100.00;96348.16;5012896;28;20484;-55
2023/03/28 00:08:41;;;;;;;6.20;2.97;;;5.50;59.40;;;0.51;100.00;96349.00;5012012;28;20030;-54
2023/03/28 00:11:18;;;;;;;5.63;3.13;;;5.50;59.50;;;0.55;100.00;96348.44;5012732;28;20495;-52
2023/03/28 00:13:56;;;;;;;5.63;2.88;;;5.50;59.60;;;0.58;100.00;96369.03;5012235;28;20032;-55
2023/03/28 00:16:30;;;;;;;5.95;2.80;;;5.50;59.50;;;0.61;100.00;96360.81;4993038;28;20052;-56
2023/03/28 00:19:07;;;;;;;4.53;2.33;;;5.60;59.50;;;0.62;100.00;96361.63;4993035;28;20025;-52
2023/03/28 00:21:40;;;;;;;6.95;2.90;;;5.60;59.60;;;0.66;100.00;96355.03;4992157;28;20107;-54
2023/03/28 00:24:13;;;;;;;4.18;2.63;;;5.60;59.50;;;0.67;100.00;96356.66;4992489;28;20041;-51
2023/03/28 00:26:41;;;;;;;7.03;2.78;;;5.60;59.40;;;0.68;100.00;96353.81;4992101;28;20128;-53
2023/03/28 00:29:15;;;;;;;6.78;2.85;;;5.60;59.40;;;0.68;100.00;96353.81;4992804;28;20029;-53
2023/03/28 00:31:41;;;;;;;4.57;2.30;;;5.60;59.50;;;0.70;100.00;96353.66;4992722;28;20029;-53
2023/03/28 00:34:07;;;;;;;3.60;2.22;;;5.60;59.40;;;0.67;100.00;96344.34;5010889;28;20026;-54
2023/03/28 00:36:34;;;;;;;4.10;2.70;;;5.60;59.40;;;0.64;100.00;96347.31;5012190;28;20108;-54
2023/03/28 00:39:06;;;;;;;4.65;2.65;;;5.60;59.40;;;0.63;100.00;96339.66;5001380;28;20025;-53
2023/03/28 00:41:41;;;;;;;3.70;2.55;;;5.60;59.40;;;0.59;99.75;96348.88;4992460;28;20033;-54
2023/03/28 00:44:47;;;;;;;5.68;2.40;;;5.60;59.30;;;0.51;99.94;96347.19;4976393;28;20037;-53
2023/03/28 00:47:48;;;;;;;3.97;2.70;;;5.60;59.40;;;0.41;100.00;96349.28;5012016;28;20053;-54
2023/03/28 00:50:36;;;;;;;6.78;2.67;;;5.50;59.40;;;0.37;99.92;96351.41;5011003;28;20112;-55
2023/03/28 00:53:08;;;;;;;6.47;2.47;;;5.40;59.80;;;0.29;100.00;96343.66;5012051;28;20087;-53
2023/03/28 00:56:00;;;;;;;7.63;2.95;;;5.40;59.30;;;0.26;100.00;96344.03;4981362;28;20071;-54
2023/03/28 00:58:34;;;;;;;5.93;2.60;;;5.30;59.40;;;0.20;100.00;96340.31;4992399;28;20033;-51
2023/03/28 01:01:00;;;;;;;5.85;2.95;;;5.30;59.40;;;0.17;100.00;96348.53;4975448;28;20116;-53
2023/03/28 01:03:33;;;;;;;4.47;2.33;;;5.30;59.40;;;0.14;100.00;96345.47;4987178;28;20480;-55
2023/03/28 01:06:03;;;;;;;5.75;2.83;;;5.30;59.50;;;0.11;100.00;96341.41;5012040;28;20029;-53
2023/03/28 01:08:37;;;;;;;7.32;2.80;;;5.20;59.40;;;0.09;100.00;96351.22;4989336;28;20075;-51
2023/03/28 01:11:05;;;;;;;4.18;2.65;;;5.20;59.50;;;0.11;100.00;96343.22;4992222;28;20049;-53
2023/03/28 01:13:39;;;;;;;6.43;2.83;;;5.20;59.50;;;0.09;100.00;96353.84;4992342;28;20022;-54
2023/03/28 01:16:08;;;;;;;5.57;3.35;;;5.20;59.60;;;0.08;100.00;96357.47;4974866;28;20025;-51
2023/03/28 01:18:40;;;;;;;4.35;2.60;;;5.20;59.60;;;0.07;100.00;96355.84;4974990;28;20079;-55
2023/03/28 01:21:21;;;;;;;4.07;2.90;;;5.10;60.30;;;0.07;100.00;96365.53;5001653;28;20087;-53
2023/03/28 01:24:40;;;;;;;7.72;3.30;;;5.10;59.70;;;0.05;100.00;96367.50;5011058;28;20061;-53
2023/03/28 01:27:50;;;;;;;7.47;3.40;;;5.10;59.90;;;0.04;100.00;96368.50;4991063;28;20108;-51
2023/03/28 01:31:24;;;;;;;3.25;2.47;;;5.10;60.00;;;0.03;100.00;96369.47;4975314;28;20033;-51
2023/03/28 01:34:20;;;;;;;5.35;2.88;;;5.00;59.90;;;-0.01;100.00;96376.88;5007159;28;20055;-54
2023/03/28 01:37:22;;;;;;;6.85;3.35;;;5.00;60.00;;;-0.01;100.00;96375.06;5011698;28;20109;-53
2023/03/28 01:40:40;;;;;;;7.47;3.70;;;5.00;60.10;;;-0.03;100.00;96376.28;4977153;28;20583;-54
2023/03/28 01:44:15;;;;;;;7.05;3.40;;;4.90;60.00;;;-0.08;100.00;96379.41;4977112;28;20028;-54
2023/03/28 01:47:05;;;;;;;6.50;2.95;;;4.90;60.10;;;-0.14;100.00;96374.88;4926437;28;20042;-53
2023/03/28 01:50:02;;;;;;;6.15;3.13;;;4.80;60.10;;;-0.19;100.00;96376.41;4975651;28;20021;-57
2023/03/28 01:52:48;;;;;;;9.65;3.40;;;4.80;60.20;;;-0.26;100.00;96365.81;4990408;28;20026;-57
2023/03/28 01:55:38;;;;;;;8.00;3.97;;;4.70;60.20;;;-0.30;100.00;96367.19;4975509;28;20025;-57
2023/03/28 01:58:29;;;;;;;8.15;4.05;;;4.60;60.20;;;-0.35;100.00;96372.13;4973986;28;20051;-51
2023/03/28 02:01:12;;;;;;;7.10;3.88;;;4.60;60.30;;;-0.38;100.00;96369.84;4991346;28;20037;-55
2023/03/28 02:03:46;;;;;;;;;;;4.60;60.40;;;-0.39;100.00;96373.47;4991767;28;20357;-52
2023/03/28 02:06:16;;;;;;;9.73;3.67;;;4.60;60.10;;;-0.42;100.00;96365.97;4974824;28;20000;-54
2023/03/28 02:08:48;;;;;;;7.15;3.80;;;4.50;60.20;;;-0.43;100.00;96369.59;4997077;28;20033;-53
2023/03/28 02:11:14;;;;;;;6.60;4.07;;;4.50;60.40;;;-0.47;100.00;96363.88;4993781;28;20100;-53
2023/03/28 02:14:03;;;;;;;7.93;3.75;;;4.50;60.40;;;-0.47;100.00;96374.34;5011062;28;20113;-54
2023/03/28 02:16:40;;;;;;;8.55;3.95;;;4.50;60.70;;;-0.47;100.00;96364.72;4991690;28;20018;-50
2023/03/28 02:19:10;;;;;;;11.10;3.60;;;4.50;60.70;;;-0.45;100.00;96366.31;4975133;28;20084;-51
2023/03/28 02:21:59;;;;;;;8.82;4.07;;;4.50;60.70;;;-0.43;100.00;96369.59;4973672;28;20040;-52
2023/03/28 02:24:25;;;;;;;10.60;3.85;;;4.50;60.90;;;-0.44;100.00;96368.75;4974820;28;20041;-55
2023/03/28 02:26:55;;;;;;;8.75;4.13;;;4.50;61.60;;;-0.43;100.00;96365.16;4981566;28;20028;-51
2023/03/28 02:29:21;;;;;;;13.40;4.65;;;4.50;61.00;;;-0.42;100.00;96358.13;4977449;28;20021;-50
2023/03/28 02:31:48;;;;;;;9.20;4.35;;;4.50;61.10;;;-0.40;100.00;96359.56;5010770;28;20051;-55
2023/03/28 02:34:14;;;;;;;9.77;3.83;;;4.60;61.30;;;-0.37;100.00;96353.19;4991227;28;20025;-52
2023/03/28 02:37:02;;;;;;;7.45;4.05;;;4.60;61.30;;;-0.34;100.00;96361.50;4992607;28;20033;-51
2023/03/28 02:40:30;;;;;;;9.05;4.30;;;4.60;61.40;;;-0.33;100.00;96362.28;4977004;28;20021;-50
2023/03/28 02:43:24;;;;;;;8.38;4.43;;;4.70;61.40;;;-0.34;100.00;96356.25;4993703;28;20045;-54
2023/03/28 02:46:06;;;;;;;8.80;4.07;;;4.70;61.40;;;-0.36;100.00;96362.66;4950705;28;20037;-52
2023/03/28 02:49:09;;;;;;;8.33;2.97;;;4.60;61.20;;;-0.37;100.00;96356.59;4994802;28;20017;-52
2023/03/28 02:51:58;;;;;;;6.25;3.28;;;4.60;61.30;;;-0.43;100.00;96349.47;4990059;28;20327;-51
2023/03/28 02:54:51;;;;;;;6.30;3.97;;;4.50;61.30;;;-0.45;100.00;96351.44;4992741;28;20014;-50
2023/03/28 02:57:44;;;;;;;7.25;3.72;;;4.50;61.30;;;-0.48;100.00;96346.53;5004974;28;20120;-50
2023/03/28 03:00:19;;;;;;;7.60;3.90;;;4.40;61.30;;;-0.51;100.00;96344.28;4997310;28;20544;-53
2023/03/28 03:02:50;;;;;;;7.35;4.60;;;4.40;61.30;;;-0.56;100.00;96346.63;5012891;28;20057;-51
2023/03/28 03:05:21;;;;;;;10.20;3.92;;;4.40;61.30;;;-0.61;100.00;96341.91;5014022;28;20035;-51
2023/03/28 03:07:49;;;;;;;8.10;4.55;;;4.30;61.30;;;-0.65;100.00;96339.84;5013503;28;20375;-53
2023/03/28 03:10:16;;;;;;;8.75;5.18;;;4.30;61.40;;;-0.71;100.00;96341.34;4994424;28;20025;-55
2023/03/28 03:12:43;;;;;;;7.70;4.25;;;4.30;61.40;;;-0.75;100.00;96337.47;4994191;28;20018;-54
2023/03/28 03:15:10;;;;;;;7.15;4.28;;;4.20;61.40;;;-0.82;100.00;96345.16;5003831;28;20029;-51
2023/03/28 03:17:37;;;;;;;9.18;4.15;;;4.20;61.60;;;-0.84;100.00;96344.53;4996415;28;20116;-51
2023/03/28 03:20:06;;;;;;;9.77;4.60;;;4.20;61.60;;;-0.87;100.00;96333.63;5010742;28;20028;-52
2023/03/28 03:22:33;;;;;;;17.65;5.10;;;4.10;61.70;;;-0.91;100.00;96337.56;4993865;28;20122;-54
2023/03/28 03:25:05;;;;;;;15.35;5.35;;;4.10;61.80;;;-0.97;100.00;96341.69;4993259;28;20022;-53
2023/03/28 03:27:35;;;;;;;13.10;5.13;;;4.00;61.80;;;-1.02;100.00;96339.59;5006468;28;20051;-53
2023/03/28 03:30:02;;;;;;;8.88;5.05;;;4.00;61.80;;;-1.02;100.00;96336.97;5013591;28;20104;-55
2023/03/28 03:32:28;;;;;;;7.18;4.45;;;3.90;61.80;;;-1.08;100.00;96334.25;5012119;28;20492;-51
2023/03/28 03:34:54;;;;;;;11.00;4.25;;;3.90;62.00;;;-1.10;100.00;96336.19;5013667;28;20096;-55
2023/03/28 03:37:21;;;;;;;30.42;5.93;;;3.90;62.00;;;-1.10;100.00;96330.97;5013555;28;20029;-53
2023/03/28 03:39:47;;;;;;;6.57;4.18;;;3.90;62.10;;;-1.11;100.00;96340.63;4996862;28;20112;-51
2023/03/28 03:42:13;;;;;;;14.55;5.20;;;3.90;62.10;;;-1.15;100.00;96333.31;4993597;28;20120;-55
2023/03/28 03:44:38;;;;;;;10.85;4.68;;;3.80;62.10;;;-1.23;100.00;96327.13;4999338;28;20155;-52
2023/03/28 03:47:05;;;;;;;11.77;5.57;;;3.80;62.20;;;-1.22;100.00;96330.56;5013028;28;20021;-52
2023/03/28 03:49:31;;;;;;;10.98;4.70;;;3.80;62.30;;;-1.24;100.00;96322.88;5012647;28;20498;-51
2023/03/28 03:51:57;;;;;;;8.75;5.13;;;3.80;62.30;;;-1.25;100.00;96325.69;5028846;28;20060;-52
2023/03/28 03:54:22;;;;;;;10.95;4.97;;;3.70;62.30;;;-1.29;100.00;96334.84;5025460;28;20017;-51
2023/03/28 03:56:48;;;;;;;11.77;5.57;;;3.70;62.40;;;-1.34;100.00;96324.91;5000117;28;20036;-55
2023/03/28 03:59:16;;;;;;;11.20;5.63;;;3.70;62.40;;;-1.36;100.00;96323.47;5013047;28;20021;-51
2023/03/28 04:01:42;;;;;;;10.73;5.35;;;3.70;62.50;;;-1.38;100.00;96333.25;4998817;28;20385;-53
2023/03/28 04:04:10;;;;;;;11.98;5.32;;;3.60;62.40;;;-1.41;100.00;96332.63;4994372;28;20421;-52
2023/03/28 04:06:39;;;;;;;8.07;4.75;;;3.60;62.50;;;-1.46;100.00;96332.31;5007156;28;20044;-53
2023/03/28 04:09:06;;;;;;;8.27;4.78;;;3.60;62.50;;;-1.51;100.00;96333.81;5011813;28;20035;-55
2023/03/28 04:11:34;;;;;;;12.95;5.35;;;3.50;62.60;;;-1.51;100.00;96337.22;4992883;28;20028;-57
2023/03/28 04:14:01;;;;;;;13.57;5.68;;;3.50;62.60;;;-1.53;100.00;96333.19;4992787;28;20030;-54
2023/03/28 04:16:28;;;;;;;14.50;5.30;;;3.50;62.60;;;-1.55;100.00;96337.75;5012563;28;20593;-53
2023/03/28 04:18:55;;;;;;;11.60;6.40;;;3.40;62.60;;;-1.59;100.00;96339.91;5002354;28;20026;-52
2023/03/28 04:21:31;;;;;;;9.93;5.63;;;3.40;62.70;;;-1.63;100.00;96338.59;4975021;28;20029;-52
2023/03/28 04:24:00;;;;;;;12.70;6.45;;;3.40;62.90;;;-1.63;100.00;96341.19;4992408;28;20400;-52
2023/03/28 04:26:28;;;;;;;9.93;5.50;;;3.40;62.80;;;-1.65;100.00;96338.78;4995948;28;20126;-51
2023/03/28 04:28:55;;;;;;;14.00;5.57;;;3.30;62.80;;;-1.68;100.00;96339.13;5012259;28;20052;-53
2023/03/28 04:31:28;;;;;;;9.65;5.70;;;3.30;62.90;;;-1.70;100.00;96342.88;5012120;28;20031;-52
2023/03/28 04:33:55;;;;;;;19.13;6.72;;;3.30;62.90;;;-1.73;100.00;96343.22;4995678;28;20022;-53
2023/03/28 04:36:24;;;;;;;17.25;6.20;;;3.30;62.90;;;-1.75;100.00;96348.63;4988316;28;20116;-52
2023/03/28 04:38:50;;;;;;;11.32;6.13;;;3.20;62.90;;;-1.78;100.00;96343.72;5011084;28;20025;-50
2023/03/28 04:41:17;;;;;;;13.38;6.50;;;3.20;63.00;;;-1.78;100.00;96348.16;5011867;28;20041;-54
2023/03/28 04:43:43;;;;;;;12.13;6.30;;;3.20;63.00;;;-1.81;100.00;96343.25;5012243;28;20397;-50
2023/03/28 04:46:10;;;;;;;12.05;6.45;;;3.20;63.00;;;-1.83;100.00;96346.03;4993172;28;20171;-51
2023/03/28 04:48:36;;;;;;;13.00;6.30;;;3.20;63.00;;;-1.84;100.00;96346.22;4992348;28;20029;-51
2023/03/28 04:51:02;;;;;;;9.40;5.47;;;3.10;63.00;;;-1.85;100.00;96350.59;4991832;28;20160;-52
2023/03/28 04:53:28;;;;;;;16.02;6.30;;;3.10;63.80;;;-1.91;100.00;96344.25;4992230;28;20500;-51
2023/03/28 04:55:53;;;;;;;8.82;5.20;;;3.10;63.10;;;-1.92;100.00;96353.06;4991648;28;20033;-51
2023/03/28 04:58:22;;;;;;;14.68;5.53;;;3.10;63.10;;;-1.96;100.00;96354.38;4992087;28;20034;-53
2023/03/28 05:00:49;;;;;;;14.52;5.60;;;3.00;63.10;;;-1.96;100.00;96354.38;4991500;28;20506;-52
2023/03/28 05:03:20;;;;;;;13.65;6.63;;;3.00;63.20;;;-1.97;100.00;96363.22;4991585;28;20468;-50
2023/03/28 05:05:50;;;;;;;12.30;5.75;;;3.00;63.20;;;-1.97;100.00;96363.22;4992316;28;20037;-50
2023/03/28 05:08:21;;;;;;;14.38;6.05;;;3.00;64.00;;;-1.99;100.00;96367.78;4989957;28;20459;-54
2023/03/28 05:10:48;;;;;;;11.32;5.38;;;3.00;63.30;;;-2.04;100.00;96372.66;5007929;28;20033;-52
2023/03/28 05:13:15;;;;;;;10.23;5.00;;;3.00;63.20;;;-2.05;100.00;96363.22;5011436;28;20029;-49
2023/03/28 05:15:44;;;;;;;15.25;6.00;;;3.00;63.30;;;-2.07;100.00;96367.78;5010582;28;20021;-50
2023/03/28 05:18:10;;;;;;;15.95;6.35;;;2.90;63.20;;;-2.10;100.00;96368.94;5011744;28;20040;-49
2023/03/28 05:20:36;;;;;;;18.92;7.30;;;2.90;63.30;;;-2.10;100.00;96376.78;4980242;28;20195;-51
2023/03/28 05:23:05;;;;;;;11.68;7.15;;;2.90;63.30;;;-2.09;100.00;96377.59;5029894;23;20098;-46
2023/03/28 05:25:31;;;;;;;12.90;6.82;;;3.00;63.50;;;-2.07;100.00;96378.22;5018166;28;20064;-50
2023/03/28 05:27:57;;;;;;;17.65;7.38;;;2.90;63.50;;;-2.06;100.00;96385.09;5018057;28;20086;-51
2023/03/28 05:30:23;;;;;;;20.23;7.25;;;3.00;63.50;;;-2.05;100.00;96388.53;5011489;28;20475;-50
2023/03/28 05:32:49;;;;;;;14.05;6.18;;;3.00;63.50;;;-2.10;100.00;96386.38;5008623;28;20028;-52
2023/03/28 05:35:16;;;;;;;20.30;6.40;;;3.00;63.60;;;-2.05;100.00;96396.34;5010184;28;20475;-46
2023/03/28 05:37:43;;;;;;;12.63;5.63;;;3.00;63.60;;;-2.01;100.00;96401.06;5006001;28;20032;-46
2023/03/28 05:40:11;;;;;;;13.43;6.63;;;3.10;63.60;;;-2.00;100.00;96399.28;5010708;28;20400;-46
2023/03/28 05:42:39;;;;;;;15.73;6.43;;;3.10;63.60;;;-2.00;100.00;96400.09;4993243;28;20025;-49
2023/03/28 05:45:08;;;;;;;14.10;5.38;;;3.10;63.50;;;-1.96;100.00;96397.97;5010509;28;20100;-50
2023/03/28 05:47:35;;;;;;;22.55;6.85;;;3.10;63.50;;;-1.96;100.00;96404.00;5010712;28;20029;-47
2023/03/28 05:50:02;;;;;;;15.38;6.40;;;3.20;63.50;;;-1.94;100.00;96411.69;5009991;28;20056;-45
2023/03/28 05:52:28;;;;;;;16.10;6.90;;;3.20;63.50;;;-1.93;100.00;96408.91;5010629;28;20017;-46
2023/03/28 05:54:56;;;;;;;14.82;6.40;;;3.20;63.50;;;-1.91;100.00;96409.56;5009955;28;20068;-46
2023/03/28 05:57:24;;;;;;;11.00;5.47;;;3.20;63.50;;;-1.83;100.00;96413.13;5002628;28;20017;-49
2023/03/28 05:59:50;;;;;;;14.05;5.65;;;3.30;63.60;;;-1.79;100.00;96412.59;4993552;28;20476;-48
2023/03/28 06:02:20;;;;;;;11.50;5.97;;;3.40;63.60;;;-1.70;100.00;96414.22;5009657;28;20297;-48
2023/03/28 06:04:46;;;;;;;12.27;6.03;;;3.40;63.80;;;-1.63;100.00;96417.81;5009725;28;20071;-47
2023/03/28 06:07:13;;;;;;;11.60;6.10;;;3.50;63.70;;;-1.58;100.00;96422.53;4991480;28;20392;-46
2023/03/28 06:09:41;;;;;;;10.77;5.80;;;3.50;63.70;;;-1.54;100.00;96423.81;4997379;28;20018;-48
2023/03/28 06:12:07;;;;;;;8.77;5.15;;;3.60;63.70;;;-1.52;100.00;96423.66;5011411;28;20028;-46
2023/03/28 06:14:33;;;;;;;14.10;6.65;;;3.60;63.70;;;-1.48;100.00;96430.16;4948994;28;25034;-46
2023/03/28 06:16:59;;;;;;;11.52;5.63;;;3.70;63.70;;;-1.45;100.00;96425.41;5014255;28;20107;-46
2023/03/28 06:19:26;;;;;;;14.18;6.20;;;3.80;63.70;;;-1.40;100.00;96427.53;5014579;28;20493;-48
2023/03/28 06:21:52;;;;;;;9.98;6.22;;;3.80;63.80;;;-1.34;100.00;96437.31;5013152;28;20021;-48
2023/03/28 06:24:18;;;;;;;11.05;5.65;;;3.90;63.80;;;-1.30;100.00;96441.22;5014408;28;20395;-48
2023/03/28 06:26:44;;;;;;;11.98;6.20;;;3.90;63.70;;;-1.24;100.00;96439.72;5007420;28;20034;-46
2023/03/28 06:29:11;;;;;;;13.35;6.32;;;4.00;63.80;;;-1.19;100.00;96440.84;4995663;28;20014;-49
2023/03/28 06:31:37;;;;;;;12.98;5.75;;;4.00;63.70;;;-1.13;100.00;96441.13;4994649;28;20034;-46
2023/03/28 06:34:03;;;;;;;14.45;6.35;;;4.10;63.70;;;-1.05;100.00;96436.69;5002747;28;20018;-47
2023/03/28 06:36:29;;;;;;;17.15;7.45;;;4.20;63.70;;;-0.80;100.00;96436.56;4938926;28;21633;-49
2023/03/28 06:38:57;;;;;;;14.50;7.35;;;4.50;63.80;;;-0.43;100.00;96443.69;4979709;28;20025;-51
2023/03/28 06:41:23;;;;;;;11.98;6.88;;;4.90;63.90;;;-0.07;100.00;96433.41;5014126;28;20108;-48
2023/03/28 06:43:49;;;;;;;10.48;6.18;;;5.40;64.00;;;0.35;100.00;96436.50;5014015;28;20112;-48
2023/03/28 06:46:15;;;;;;;11.50;6.60;;;5.80;63.90;;;0.71;100.00;96428.69;5012623;28;20017;-55
2023/03/28 06:48:42;;;;;;;13.18;6.45;;;6.20;63.80;;;1.12;100.00;96436.06;5014059;28;20017;-48
2023/03/28 06:51:08;;;;;;;12.18;7.03;;;6.70;63.80;;;1.43;100.00;96429.75;5013058;28;20064;-48
2023/03/28 06:53:34;;;;;;;13.80;7.00;;;7.10;63.60;;;1.69;100.00;96431.81;5013978;28;20094;-51
2023/03/28 06:56:01;;;;;;;11.82;6.78;;;7.50;63.40;;;1.90;100.00;96431.81;5011957;28;20025;-54
2023/03/28 06:58:27;;;;;;;15.07;7.32;;;7.90;64.00;;;2.07;100.00;96435.00;5013794;28;20029;-51
2023/03/28 07:00:58;;;;;;;12.52;6.88;;;8.30;62.80;;;2.37;100.00;96440.06;5013631;28;20053;-53
2023/03/28 07:03:24;;;;;;;8.38;6.03;;;8.70;62.50;;;2.66;99.83;96447.72;5012574;28;20021;-51
2023/03/28 07:05:50;;;;;;;8.73;5.80;;;8.90;62.00;;;2.95;96.87;96443.25;5014057;28;20399;-53
2023/03/28 07:08:16;;;;;;;8.15;5.30;;;9.30;61.70;;;3.24;95.23;96445.56;5010267;28;20021;-52
2023/03/28 07:10:42;;;;;;;6.40;4.63;;;9.60;61.30;;;3.42;91.90;96447.66;5008771;28;20460;-53
2023/03/28 07:13:09;;;;;;;8.30;4.55;;;9.90;60.90;;;3.64;90.64;96448.34;5013522;28;20155;-54
2023/03/28 07:15:35;;;;;;;7.13;3.92;;;10.20;60.40;;;3.86;88.29;96453.44;4994685;28;20086;-49
2023/03/28 07:18:05;;;;;;;5.63;3.60;;;10.40;59.70;;;4.15;87.48;96453.06;5013722;28;20021;-54
2023/03/28 07:20:32;;;;;;;4.82;3.20;;;10.70;59.20;;;4.41;85.53;96451.41;4995119;28;20025;-51
2023/03/28 07:22:57;;;;;;;4.57;3.65;;;11.00;58.90;;;4.38;83.16;96452.63;5012096;28;20419;-53
2023/03/28 07:25:24;;;;;;;7.00;3.30;;;11.10;58.50;;;4.04;80.34;96460.75;5013354;28;20029;-50
2023/03/28 07:27:51;;;;;;;3.95;3.20;;;11.00;58.10;;;3.98;81.13;96465.03;5012267;28;20475;-51
2023/03/28 07:30:17;;;;;;;7.60;3.30;;;10.90;57.70;;;4.04;81.81;96456.31;5013204;28;20040;-54
2023/03/28 07:32:43;;;;;;;3.80;2.85;;;10.80;57.50;;;3.99;81.03;96456.09;5012037;28;20041;-50
2023/03/28 07:35:09;;;;;;;7.22;3.85;;;10.70;57.30;;;3.94;81.07;96458.50;5011883;28;20387;-53
2023/03/28 07:37:35;;;;;;;4.57;2.78;;;10.60;57.20;;;3.90;80.07;96457.28;5013016;28;20517;-54
2023/03/28 07:40:01;;;;;;;4.78;2.88;;;10.60;57.00;;;3.40;77.58;96460.22;4994485;28;20040;-54
2023/03/28 07:42:27;;;;;;;4.25;2.78;;;10.50;56.70;;;3.68;76.32;96454.81;5012733;28;20032;-53
2023/03/28 07:44:53;;;;;;;5.32;3.10;;;10.50;56.20;;;3.88;76.04;96459.31;5011992;28;20025;-51
2023/03/28 07:47:20;;;;;;;5.40;3.17;;;10.50;56.10;;;4.30;75.72;96457.31;5013211;28;20396;-52
2023/03/28 07:49:46;;;;;;;4.63;3.15;;;10.80;56.10;;;4.82;75.87;96455.63;5013001;28;20047;-53
2023/03/28 07:52:13;;;;;;;4.10;2.70;;;11.30;56.00;;;5.36;73.32;96457.09;5009829;28;20021;-53
2023/03/28 07:54:39;;;;;;;4.80;2.78;;;11.90;55.90;;;5.64;69.39;96456.75;5012786;28;20468;-51
2023/03/28 07:57:06;;;;;;;2.95;2.42;;;12.40;55.50;;;5.67;67.13;96460.78;5011453;28;20467;-52
2023/03/28 07:59:32;;;;;;;6.50;2.72;;;12.60;54.80;;;5.77;66.63;96464.59;5012593;28;20151;-50
2023/03/28 08:01:58;;;;;;;4.25;2.83;;;12.60;54.20;;;6.18;66.22;96451.94;5012058;28;20021;-52
2023/03/28 08:04:24;;;;;;;3.42;2.75;;;12.90;53.70;;;6.34;64.43;96458.53;5012495;28;20491;-55
2023/03/28 08:06:51;;;;;;;2.83;2.55;;;13.20;53.10;;;6.77;64.29;96461.22;5012729;28;20045;-54
2023/03/28 08:09:18;;;;;;;4.18;2.33;;;13.60;52.60;;;6.90;59.88;96454.97;4990845;28;20014;-53
2023/03/28 08:11:45;;;;;;;4.38;2.63;;;14.00;52.10;;;7.20;59.74;96457.69;4992836;28;20049;-50
2023/03/28 08:14:16;;;;;;;6.32;3.00;;;14.40;51.50;;;7.59;59.02;96452.94;4993515;28;20040;-50
2023/03/28 08:16:45;;;;;;;6.07;2.90;;;14.70;50.70;;;7.72;58.30;96446.66;4994805;28;20479;-50
2023/03/28 08:19:12;;;;;;;2.72;2.38;;;15.00;50.10;;;8.00;56.42;96446.03;5012418;28;20033;-48
2023/03/28 08:21:38;;;;;;;4.65;2.63;;;15.40;49.50;;;8.20;54.67;96446.53;5011337;28;20493;-50
2023/03/28 08:24:06;;;;;;;3.92;2.72;;;15.60;48.90;;;8.44;54.70;96447.41;5011664;28;20163;-54
2023/03/28 08:26:33;;;;;;;3.85;2.70;;;15.90;48.20;;;8.67;56.01;96453.78;5010221;28;20029;-51
2023/03/28 08:28:59;;;;;;;5.15;2.75;;;16.20;47.80;;;8.95;53.53;96456.53;5012314;28;20155;-50
2023/03/28 08:31:28;;;;;;;5.15;3.20;;;16.40;47.40;;;9.32;55.54;96450.94;5012184;28;20119;-49
2023/03/28 08:33:55;;;;;;;2.92;2.50;;;16.70;47.00;;;9.34;51.12;96456.84;5010957;28;20040;-51
2023/03/28 08:36:25;;;;;;;4.47;2.67;;;16.90;46.50;;;8.93;53.28;96455.13;5011918;28;20017;-52
2023/03/28 08:38:56;;;;;;;4.22;2.60;;;17.20;45.90;;;8.97;52.02;96458.97;5010870;28;20025;-50
2023/03/28 08:42:04;;;;;;;5.55;2.45;;;17.30;45.10;;;9.54;50.31;96456.41;5011913;28;20446;-49
2023/03/28 08:45:13;;;;;;;6.00;2.88;;;17.50;44.60;;;10.01;49.99;96458.09;5010401;28;20029;-50
2023/03/28 08:48:24;;;;;;;3.22;2.45;;;17.70;44.20;;;10.42;48.44;96463.06;4997221;28;20052;-48
2023/03/28 08:51:03;;;;;;;5.68;2.70;;;18.10;43.90;;;10.75;46.21;96466.78;5008265;28;20040;-51
2023/03/28 08:53:44;;;;;;;6.30;2.40;;;18.30;43.40;;;10.56;46.58;96463.56;4994454;28;20080;-51
2023/03/28 08:56:15;;;;;;;4.97;2.53;;;18.50;42.90;;;10.38;44.01;96467.28;4993370;28;20021;-50
2023/03/28 08:59:12;;;;;;;2.83;2.40;;;18.60;42.00;;;10.48;45.15;96460.50;5011795;28;20021;-50
2023/03/28 09:01:39;;;;;;;3.28;2.30;;;18.80;41.50;;;10.55;43.68;96461.13;4994158;28;20026;-49
2023/03/28 09:04:05;;;;;;;2.53;2.30;;;18.90;41.00;;;10.94;46.72;96456.66;5010524;28;20495;-51
2023/03/28 09:06:43;;;;;;;2.60;2.03;;;19.00;40.70;;;10.96;44.90;96467.88;4994123;28;20486;-51
2023/03/28 09:09:33;;;;;;;2.42;2.10;;;18.70;40.20;;;10.63;43.14;96458.88;4993175;28;20432;-52
2023/03/28 09:12:34;;;;;;;3.65;2.35;;;18.30;39.90;;;9.57;43.92;96453.28;5010846;28;20426;-53
2023/03/28 09:15:35;;;;;;;3.30;2.60;;;17.80;39.70;;;9.67;48.42;96453.47;5010614;28;20086;-56
2023/03/28 09:18:06;;;;;;;2.30;2.03;;;17.80;39.60;;;10.29;42.97;96458.06;5007851;28;20032;-55
2023/03/28 09:20:37;;;;;;;2.22;2.03;;;17.90;39.60;;;10.15;41.58;96449.56;4991854;28;20087;-53
2023/03/28 09:23:34;;;;;;;3.90;2.45;;;18.10;39.10;;;10.48;41.51;96450.66;5001642;28;20033;-49
2023/03/28 09:26:23;;;;;;;2.22;1.85;;;18.40;38.60;;;11.20;42.16;96455.16;4990919;28;20021;-55
2023/03/28 09:29:07;;;;;;;2.42;2.17;;;18.60;38.50;;;11.49;40.87;96460.28;5005341;28;20364;-52
2023/03/28 09:31:50;;;;;;;3.67;2.38;;;18.90;38.20;;;11.73;37.39;96450.19;4973921;28;20040;-51
2023/03/28 09:34:35;;;;;;;2.85;2.08;;;19.20;37.20;;;11.97;38.77;96454.22;5000996;28;20379;-52
2023/03/28 09:37:34;;;;;;;3.55;2.35;;;19.50;37.20;;;12.24;37.09;96462.19;4989299;28;20030;-52
2023/03/28 09:40:30;;;;;;;3.60;1.98;;;19.80;36.60;;;12.26;36.43;96452.06;5009694;28;20055;-54
2023/03/28 09:43:54;;;;;;;4.35;2.20;;;19.70;35.90;;;12.03;34.31;96457.72;5009628;28;20031;-54
2023/03/28 09:46:42;;;;;;;2.40;1.90;;;19.40;35.70;;;12.24;33.94;96451.50;5010764;28;20108;-50
2023/03/28 09:49:23;;;;;;;2.13;1.80;;;19.70;35.10;;;12.45;30.85;96451.69;5013816;28;20040;-52
2023/03/28 09:51:55;;;;;;;1.73;1.63;;;20.00;34.50;;;12.64;32.79;96442.22;5012360;28;20546;-53
2023/03/28 09:54:31;;;;;;;2.67;2.33;;;20.30;34.20;;;12.41;32.50;96443.38;5013970;28;20025;-53
2023/03/28 09:57:04;;;;;;;2.90;2.00;;;20.60;33.40;;;12.45;34.11;96438.34;5012714;28;20025;-53
2023/03/28 09:59:34;;;;;;;3.83;1.92;;;20.80;32.90;;;12.18;34.40;96439.16;4997433;28;20523;-55
2023/03/28 10:02:02;;;;;;;2.97;2.05;;;20.90;32.40;;;12.47;35.16;96430.84;5003313;28;20071;-52
2023/03/28 10:04:28;;;;;;;2.28;2.03;;;21.10;32.20;;;12.26;35.14;96432.56;5004129;28;20076;-55
2023/03/28 10:07:33;;;;;;;2.78;2.22;;;21.10;31.80;;;12.80;32.91;96432.44;4999867;28;20022;-56
2023/03/28 10:10:23;;;;;;;2.40;2.08;;;21.30;31.50;;;13.14;33.41;96440.91;4994247;28;20013;-55
2023/03/28 10:13:01;;;;;;;3.47;2.50;;;21.50;31.00;;;13.19;36.21;96432.09;5004050;28;20055;-57
2023/03/28 10:15:45;;;;;;;5.00;2.50;;;21.60;31.40;;;13.09;33.73;96426.72;5009452;28;20030;-53
2023/03/28 10:18:25;;;;;;;3.20;2.13;;;21.80;31.00;;;13.44;33.26;96434.13;4999919;28;20480;-56
2023/03/28 10:20:51;;;;;;;2.83;2.40;;;22.10;30.60;;;13.52;34.91;96433.63;4983765;28;20499;-57
2023/03/28 10:23:20;;;;;;;3.80;2.60;;;22.20;30.60;;;13.99;33.93;96432.69;5013947;28;20047;-54
2023/03/28 10:25:53;;;;;;;3.83;2.78;;;22.40;30.20;;;14.00;32.82;96423.56;5011060;28;20017;-57
2023/03/28 10:28:38;;;;;;;3.33;2.80;;;22.50;30.00;;;13.71;33.17;96417.91;5013547;28;20021;-55
2023/03/28 10:31:06;;;;;;;2.50;2.30;;;22.60;29.60;;;14.05;34.19;96412.06;4996921;28;20102;-54
2023/03/28 10:33:34;;;;;;;2.92;2.50;;;22.70;29.80;;;14.27;32.84;96411.81;5013492;28;20100;-57
2023/03/28 10:36:36;;;;;;;4.15;2.60;;;22.90;29.60;;;14.22;32.14;96406.44;5014454;28;20025;-55
2023/03/28 10:39:31;;;;;;;2.97;2.60;;;23.10;29.10;;;14.52;33.27;96401.13;5009956;28;20033;-55
2023/03/28 10:42:02;;;;;;;2.53;2.33;;;23.20;29.00;;;14.62;33.92;96403.00;4996832;28;20108;-53
2023/03/28 10:44:35;;;;;;;4.47;2.53;;;23.20;28.90;;;14.48;34.31;96393.88;5013388;28;20049;-57
2023/03/28 10:47:11;;;;;;;4.05;2.72;;;23.30;28.70;;;14.50;33.88;96389.03;5013870;28;20036;-56
2023/03/28 10:49:47;;;;;;;4.53;2.65;;;23.30;28.40;;;13.67;32.63;96395.41;5014235;28;20100;-55